sensor_id;sensor_type;location;lat;lon;timestamp;pressure;altitude;pressure_sealevel;temperature;humidity
58622;BME280;44389;51.578;5.456;2022-09-28T00:03:32;99513.94;;;6.10;100.00
58622;BME280;44389;51.578;5.456;2022-09-28T00:06:06;99518.22;;;6.11;100.00
58622;BME280;44389;51.578;5.456;2022-09-28T00:08:33;99521.69;;;6.13;100.00
58622;BME280;44389;51.578;5.456;2022-09-28T00:10:59;99508.09;;;6.16;100.00
58622;BME280;44389;51.578;5.456;2022-09-28T00:13:24;99509.03;;;6.18;100.00
58622;BME280;44389;51.578;5.456;2022-09-28T00:16:04;99501.38;;;6.19;100.00
58622;BME280;44389;51.578;5.456;2022-09-28T00:18:31;99509.94;;;6.20;100.00
58622;BME280;44389;51.578;5.456;2022-09-28T00:21:01;99503.13;;;6.20;100.00
58622;BME280;44389;51.578;5.456;2022-09-28T00:23:27;99498.06;;;6.23;100.00
58622;BME280;44389;51.578;5.456;2022-09-28T00:25:53;99492.94;;;6.23;100.00
58622;BME280;44389;51.578;5.456;2022-09-28T00:28:18;99488.75;;;6.25;100.00
58622;BME280;44389;51.578;5.456;2022-09-28T00:30:43;99487.81;;;6.23;100.00
58622;BME280;44389;51.578;5.456;2022-09-28T00:33:08;99486.91;;;6.20;100.00
58622;BME280;44389;51.578;5.456;2022-09-28T00:35:34;99486.00;;;6.18;100.00
58622;BME280;44389;51.578;5.456;2022-09-28T00:37:59;99479.19;;;6.18;100.00
58622;BME280;44389;51.578;5.456;2022-09-28T00:40:26;99473.16;;;6.16;100.00
58622;BME280;44389;51.578;5.456;2022-09-28T00:42:51;99477.38;;;6.14;100.00
58622;BME280;44389;51.578;5.456;2022-09-28T00:45:16;99480.75;;;6.13;100.00
58622;BME280;44389;51.578;5.456;2022-09-28T00:47:54;99479.84;;;6.09;100.00
58622;BME280;44389;51.578;5.456;2022-09-28T00:50:25;99472.06;;;6.06;100.00
58622;BME280;44389;51.578;5.456;2022-09-28T00:53:08;99474.72;;;6.09;100.00
58622;BME280;44389;51.578;5.456;2022-09-28T00:55:48;99477.28;;;6.09;100.00
58622;BME280;44389;51.578;5.456;2022-09-28T00:58:19;99475.56;;;6.10;100.00
58622;BME280;44389;51.578;5.456;2022-09-28T01:00:46;99474.75;;;6.11;100.00
58622;BME280;44389;51.578;5.456;2022-09-28T01:03:12;99479.06;;;6.14;100.00
58622;BME280;44389;51.578;5.456;2022-09-28T01:05:38;99469.81;;;6.19;100.00
58622;BME280;44389;51.578;5.456;2022-09-28T01:08:04;99472.41;;;6.20;100.00
58622;BME280;44389;51.578;5.456;2022-09-28T01:10:30;99472.41;;;6.20;100.00
58622;BME280;44389;51.578;5.456;2022-09-28T01:12:56;99467.25;;;6.17;100.00
58622;BME280;44389;51.578;5.456;2022-09-28T01:15:23;99472.41;;;6.20;100.00
58622;BME280;44389;51.578;5.456;2022-09-28T01:18:06;99471.50;;;6.18;100.00
58622;BME280;44389;51.578;5.456;2022-09-28T01:28:46;99469.47;;;6.05;100.00
58622;BME280;44389;51.578;5.456;2022-09-28T01:31:16;99476.16;;;6.00;100.00
58622;BME280;44389;51.578;5.456;2022-09-28T01:33:45;99476.88;;;5.96;100.00
58622;BME280;44389;51.578;5.456;2022-09-28T01:36:18;99477.75;;;5.98;100.00
58622;BME280;44389;51.578;5.456;2022-09-28T01:38:49;99478.50;;;5.93;100.00
58622;BME280;44389;51.578;5.456;2022-09-28T01:41:16;99475.97;;;5.93;100.00
58622;BME280;44389;51.578;5.456;2022-09-28T01:43:47;99480.25;;;5.94;100.00
58622;BME280;44389;51.578;5.456;2022-09-28T01:46:19;99483.63;;;5.93;100.00
58622;BME280;44389;51.578;5.456;2022-09-28T01:48:49;99492.31;;;5.99;100.00
58622;BME280;44389;51.578;5.456;2022-09-28T01:51:33;99489.88;;;6.02;100.00
58622;BME280;44389;51.578;5.456;2022-09-28T01:54:08;99483.06;;;6.04;100.00
58622;BME280;44389;51.578;5.456;2022-09-28T01:56:39;99489.13;;;6.06;100.00
58622;BME280;44389;51.578;5.456;2022-09-28T01:59:12;99484.03;;;6.07;100.00
58622;BME280;44389;51.578;5.456;2022-09-28T02:01:43;99484.06;;;6.09;100.00
58622;BME280;44389;51.578;5.456;2022-09-28T02:04:38;99481.63;;;6.14;100.00
58622;BME280;44389;51.578;5.456;2022-09-28T02:07:22;99480.03;;;6.17;100.00
58622;BME280;44389;51.578;5.456;2022-09-28T02:09:54;99477.47;;;6.17;100.00
58622;BME280;44389;51.578;5.456;2022-09-28T02:12:26;99476.72;;;6.21;100.00
58622;BME280;44389;51.578;5.456;2022-09-28T02:15:00;99475.00;;;6.22;100.00
58622;BME280;44389;51.578;5.456;2022-09-28T02:17:29;99472.47;;;6.23;100.00
58622;BME280;44389;51.578;5.456;2022-09-28T02:19:54;99477.59;;;6.23;100.00
58622;BME280;44389;51.578;5.456;2022-09-28T02:22:27;99474.22;;;6.24;100.00
58622;BME280;44389;51.578;5.456;2022-09-28T02:24:58;99474.19;;;6.23;100.00
58622;BME280;44389;51.578;5.456;2022-09-28T02:28:12;99475.88;;;6.22;100.00
58622;BME280;44389;51.578;5.456;2022-09-28T02:30:12;99481.00;;;6.22;100.00
58622;BME280;44389;51.578;5.456;2022-09-28T02:32:43;99479.28;;;6.21;100.00
58622;BME280;44389;51.578;5.456;2022-09-28T02:35:12;99475.78;;;6.19;100.00
58622;BME280;44389;51.578;5.456;2022-09-28T02:37:38;99469.84;;;6.20;100.00
58622;BME280;44389;51.578;5.456;2022-09-28T02:40:14;99474.97;;;6.20;100.00
58622;BME280;44389;51.578;5.456;2022-09-28T02:42:54;99475.88;;;6.22;100.00
58622;BME280;44389;51.578;5.456;2022-09-28T02:48:10;99479.13;;;6.17;100.00
58622;BME280;44389;51.578;5.456;2022-09-28T02:50:50;99485.16;;;6.17;100.00
58622;BME280;44389;51.578;5.456;2022-09-28T02:56:44;99483.25;;;6.10;100.00
58622;BME280;44389;51.578;5.456;2022-09-28T03:04:50;99487.44;;;6.08;100.00
58622;BME280;44389;51.578;5.456;2022-09-28T03:07:25;99479.72;;;6.06;100.00
58622;BME280;44389;51.578;5.456;2022-09-28T03:09:54;99484.03;;;6.07;100.00
58622;BME280;44389;51.578;5.456;2022-09-28T03:12:21;99482.31;;;6.08;100.00
58622;BME280;44389;51.578;5.456;2022-09-28T03:15:05;99483.25;;;6.10;100.00
58622;BME280;44389;51.578;5.456;2022-09-28T03:17:30;99480.69;;;6.10;100.00
58622;BME280;44389;51.578;5.456;2022-09-28T03:19:55;99482.41;;;6.11;100.00
58622;BME280;44389;51.578;5.456;2022-09-28T03:22:21;99484.09;;;6.10;100.00
58622;BME280;44389;51.578;5.456;2022-09-28T03:24:46;99484.16;;;6.12;100.00
58622;BME280;44389;51.578;5.456;2022-09-28T03:27:11;99480.72;;;6.12;100.00
58622;BME280;44389;51.578;5.456;2022-09-28T03:29:36;99485.81;;;6.10;100.00
58622;BME280;44389;51.578;5.456;2022-09-28T03:32:02;99480.56;;;6.05;100.00
58622;BME280;44389;51.578;5.456;2022-09-28T03:34:27;99485.72;;;6.07;100.00
58622;BME280;44389;51.578;5.456;2022-09-28T03:36:52;99479.66;;;6.03;100.00
58622;BME280;44389;51.578;5.456;2022-09-28T03:39:18;99475.41;;;6.04;100.00
58622;BME280;44389;51.578;5.456;2022-09-28T03:41:43;99481.19;;;5.97;100.00
58622;BME280;44389;51.578;5.456;2022-09-28T03:44:08;99484.69;;;6.00;100.00
58622;BME280;44389;51.578;5.456;2022-09-28T03:46:33;99482.88;;;5.98;100.00
58622;BME280;44389;51.578;5.456;2022-09-28T03:48:59;99482.97;;;5.99;100.00
58622;BME280;44389;51.578;5.456;2022-09-28T03:51:24;99483.06;;;6.04;100.00
58622;BME280;44389;51.578;5.456;2022-09-28T03:53:50;99483.91;;;6.03;100.00
58622;BME280;44389;51.578;5.456;2022-09-28T03:56:15;99494.13;;;6.03;100.00
58622;BME280;44389;51.578;5.456;2022-09-28T03:58:41;99486.53;;;6.04;100.00
58622;BME280;44389;51.578;5.456;2022-09-28T04:01:09;99495.97;;;6.07;100.00
58622;BME280;44389;51.578;5.456;2022-09-28T04:03:36;99486.59;;;6.07;100.00
58622;BME280;44389;51.578;5.456;2022-09-28T04:06:01;99491.75;;;6.09;100.00
58622;BME280;44389;51.578;5.456;2022-09-28T04:08:27;99494.28;;;6.09;100.00
58622;BME280;44389;51.578;5.456;2022-09-28T04:10:59;99490.84;;;6.07;100.00
58622;BME280;44389;51.578;5.456;2022-09-28T04:13:26;99498.53;;;6.07;100.00
58622;BME280;44389;51.578;5.456;2022-09-28T04:15:53;99496.81;;;6.07;100.00
58622;BME280;44389;51.578;5.456;2022-09-28T04:18:19;99491.69;;;6.07;100.00
58622;BME280;44389;51.578;5.456;2022-09-28T04:20:45;99495.97;;;6.07;100.00
58622;BME280;44389;51.578;5.456;2022-09-28T04:23:12;99493.34;;;6.05;100.00
58622;BME280;44389;51.578;5.456;2022-09-28T04:25:38;99484.78;;;6.03;100.00
58622;BME280;44389;51.578;5.456;2022-09-28T04:28:03;99482.19;;;6.02;100.00
58622;BME280;44389;51.578;5.456;2022-09-28T04:30:48;99482.19;;;6.02;100.00
58622;BME280;44389;51.578;5.456;2022-09-28T04:33:13;99487.31;;;6.02;100.00
58622;BME280;44389;51.578;5.456;2022-09-28T04:35:38;99470.09;;;5.98;100.00
58622;BME280;44389;51.578;5.456;2022-09-28T04:38:03;99474.19;;;5.91;100.00
58622;BME280;44389;51.578;5.456;2022-09-28T04:40:29;99475.72;;;5.84;100.00
58622;BME280;44389;51.578;5.456;2022-09-28T04:42:55;99474.91;;;5.85;100.00
58622;BME280;44389;51.578;5.456;2022-09-28T04:45:21;99468.84;;;5.82;100.00
58622;BME280;44389;51.578;5.456;2022-09-28T04:47:47;99478.03;;;5.75;100.00
58622;BME280;44389;51.578;5.456;2022-09-28T04:50:12;99479.69;;;5.73;100.00
58622;BME280;44389;51.578;5.456;2022-09-28T04:52:38;99483.94;;;5.72;100.00
58622;BME280;44389;51.578;5.456;2022-09-28T04:55:04;99491.56;;;5.71;100.00
58622;BME280;44389;51.578;5.456;2022-09-28T04:57:33;99495.75;;;5.69;100.00
58622;BME280;44389;51.578;5.456;2022-09-28T04:59:58;99499.88;;;5.64;100.00
58622;BME280;44389;51.578;5.456;2022-09-28T05:02:23;99502.19;;;5.54;100.00
58622;BME280;44389;51.578;5.456;2022-09-28T05:04:48;99504.91;;;5.60;100.00
58622;BME280;44389;51.578;5.456;2022-09-28T05:07:14;99496.41;;;5.61;100.00
58622;BME280;44389;51.578;5.456;2022-09-28T05:09:39;99505.00;;;5.64;100.00
58622;BME280;44389;51.578;5.456;2022-09-28T05:12:04;99513.47;;;5.63;100.00
58622;BME280;44389;51.578;5.456;2022-09-28T05:14:30;99504.25;;;5.68;100.00
58622;BME280;44389;51.578;5.456;2022-09-28T05:16:55;99503.34;;;5.66;100.00
58622;BME280;44389;51.578;5.456;2022-09-28T05:19:20;99498.31;;;5.69;100.00
58622;BME280;44389;51.578;5.456;2022-09-28T05:21:45;99498.34;;;5.70;100.00
58622;BME280;44389;51.578;5.456;2022-09-28T05:24:12;99500.91;;;5.70;100.00
58622;BME280;44389;51.578;5.456;2022-09-28T05:26:38;99506.84;;;5.69;100.00
58622;BME280;44389;51.578;5.456;2022-09-28T05:29:03;99512.81;;;5.68;100.00
58622;BME280;44389;51.578;5.456;2022-09-28T05:31:29;99510.06;;;5.62;100.00
58622;BME280;44389;51.578;5.456;2022-09-28T05:33:54;99504.97;;;5.62;100.00
58622;BME280;44389;51.578;5.456;2022-09-28T05:36:19;99505.75;;;5.59;100.00
58622;BME280;44389;51.578;5.456;2022-09-28T05:38:45;99507.38;;;5.57;100.00
58622;BME280;44389;51.578;5.456;2022-09-28T05:41:11;99508.03;;;5.50;100.00
58622;BME280;44389;51.578;5.456;2022-09-28T05:43:36;99501.22;;;5.51;100.00
58622;BME280;44389;51.578;5.456;2022-09-28T05:46:03;99500.19;;;5.44;100.00
58622;BME280;44389;51.578;5.456;2022-09-28T05:48:28;99504.53;;;5.47;100.00
58622;BME280;44389;51.578;5.456;2022-09-28T05:50:54;99502.72;;;5.42;100.00
58622;BME280;44389;51.578;5.456;2022-09-28T05:53:19;99500.19;;;5.44;100.00
58622;BME280;44389;51.578;5.456;2022-09-28T05:55:45;99503.41;;;5.38;100.00
58622;BME280;44389;51.578;5.456;2022-09-28T05:58:11;99512.88;;;5.41;100.00
58622;BME280;44389;51.578;5.456;2022-09-28T06:00:36;99507.75;;;5.41;100.00
58622;BME280;44389;51.578;5.456;2022-09-28T06:03:04;99512.97;;;5.44;100.00
58622;BME280;44389;51.578;5.456;2022-09-28T06:05:32;99523.38;;;5.50;100.00
58622;BME280;44389;51.578;5.456;2022-09-28T06:07:58;99524.38;;;5.55;100.00
58622;BME280;44389;51.578;5.456;2022-09-28T06:10:25;99521.81;;;5.55;100.00
58622;BME280;44389;51.578;5.456;2022-09-28T06:12:54;99523.53;;;5.56;100.00
58622;BME280;44389;51.578;5.456;2022-09-28T06:15:21;99526.06;;;5.56;100.00
58622;BME280;44389;51.578;5.456;2022-09-28T06:17:47;99532.06;;;5.57;100.00
58622;BME280;44389;51.578;5.456;2022-09-28T06:20:12;99535.41;;;5.54;100.00
58622;BME280;44389;51.578;5.456;2022-09-28T06:22:37;99536.22;;;5.53;100.00
58622;BME280;44389;51.578;5.456;2022-09-28T06:25:04;99533.66;;;5.53;100.00
58622;BME280;44389;51.578;5.456;2022-09-28T06:27:31;99530.03;;;5.45;100.00
58622;BME280;44389;51.578;5.456;2022-09-28T06:29:56;99530.16;;;5.50;100.00
58622;BME280;44389;51.578;5.456;2022-09-28T06:32:21;99534.44;;;5.51;100.00
58622;BME280;44389;51.578;5.456;2022-09-28T06:34:47;99536.25;;;5.55;100.00
58622;BME280;44389;51.578;5.456;2022-09-28T06:37:12;99529.47;;;5.55;100.00
58622;BME280;44389;51.578;5.456;2022-09-28T06:39:37;99534.53;;;5.54;100.00
58622;BME280;44389;51.578;5.456;2022-09-28T06:42:02;99533.16;;;5.65;100.00
58622;BME280;44389;51.578;5.456;2022-09-28T06:44:28;99537.47;;;5.68;100.00
58622;BME280;44389;51.578;5.456;2022-09-28T06:46:54;99546.97;;;5.72;100.00
58622;BME280;44389;51.578;5.456;2022-09-28T06:49:23;99545.50;;;5.80;100.00
58622;BME280;44389;51.578;5.456;2022-09-28T06:51:48;99536.34;;;5.88;100.00
58622;BME280;44389;51.578;5.456;2022-09-28T06:54:14;99547.75;;;6.00;100.00
58622;BME280;44389;51.578;5.456;2022-09-28T06:56:39;99552.25;;;6.07;100.00
58622;BME280;44389;51.578;5.456;2022-09-28T06:59:04;99557.59;;;6.16;100.00
58622;BME280;44389;51.578;5.456;2022-09-28T07:01:30;99554.31;;;6.22;100.00
58622;BME280;44389;51.578;5.456;2022-09-28T07:03:55;99558.63;;;6.23;100.00
58622;BME280;44389;51.578;5.456;2022-09-28T07:06:22;99561.25;;;6.26;100.00
58622;BME280;44389;51.578;5.456;2022-09-28T07:08:48;99562.31;;;6.34;100.00
58622;BME280;44389;51.578;5.456;2022-09-28T07:11:14;99563.41;;;6.44;100.00
58622;BME280;44389;51.578;5.456;2022-09-28T07:13:39;99562.78;;;6.53;100.00
58622;BME280;44389;51.578;5.456;2022-09-28T07:16:05;99559.56;;;6.60;100.00
58622;BME280;44389;51.578;5.456;2022-09-28T07:18:30;99562.47;;;6.74;100.00
58622;BME280;44389;51.578;5.456;2022-09-28T07:20:56;99565.09;;;6.77;100.00
58622;BME280;44389;51.578;5.456;2022-09-28T07:23:23;99566.38;;;6.95;100.00
58622;BME280;44389;51.578;5.456;2022-09-28T07:25:48;99561.31;;;6.98;100.00
58622;BME280;44389;51.578;5.456;2022-09-28T07:28:15;99573.47;;;7.06;100.00
58622;BME280;44389;51.578;5.456;2022-09-28T07:30:42;99582.16;;;7.13;100.00
58622;BME280;44389;51.578;5.456;2022-09-28T07:33:10;99578.16;;;7.24;100.00
58622;BME280;44389;51.578;5.456;2022-09-28T07:35:37;99586.91;;;7.36;100.00
58622;BME280;44389;51.578;5.456;2022-09-28T07:38:05;99576.94;;;7.48;100.00
58622;BME280;44389;51.578;5.456;2022-09-28T07:40:32;99584.69;;;7.51;100.00
58622;BME280;44389;51.578;5.456;2022-09-28T07:43:17;99585.78;;;7.63;100.00
58622;BME280;44389;51.578;5.456;2022-09-28T07:45:45;99591.22;;;7.77;100.00
58622;BME280;44389;51.578;5.456;2022-09-28T07:48:12;99588.75;;;7.81;100.00
58622;BME280;44389;51.578;5.456;2022-09-28T07:50:40;99590.72;;;7.95;100.00
58622;BME280;44389;51.578;5.456;2022-09-28T07:53:05;99589.06;;;7.97;100.00
58622;BME280;44389;51.578;5.456;2022-09-28T07:55:31;99579.81;;;8.05;100.00
58622;BME280;44389;51.578;5.456;2022-09-28T07:57:57;99591.16;;;8.16;100.00
58622;BME280;44389;51.578;5.456;2022-09-28T08:00:29;99590.50;;;8.27;100.00
58622;BME280;44389;51.578;5.456;2022-09-28T08:02:59;99586.47;;;8.41;100.00
58622;BME280;44389;51.578;5.456;2022-09-28T08:05:25;99593.56;;;8.54;100.00
58622;BME280;44389;51.578;5.456;2022-09-28T08:07:55;99588.56;;;8.61;100.00
58622;BME280;44389;51.578;5.456;2022-09-28T08:10:22;99598.22;;;8.74;100.00
58622;BME280;44389;51.578;5.456;2022-09-28T08:12:52;99606.06;;;8.83;100.00
58622;BME280;44389;51.578;5.456;2022-09-28T08:15:19;99592.44;;;8.87;100.00
58622;BME280;44389;51.578;5.456;2022-09-28T08:17:46;99598.53;;;8.94;100.00
58622;BME280;44389;51.578;5.456;2022-09-28T08:20:12;99603.78;;;9.00;100.00
58622;BME280;44389;51.578;5.456;2022-09-28T08:23:07;99601.31;;;9.08;100.00
58622;BME280;44389;51.578;5.456;2022-09-28T08:25:33;99603.13;;;9.15;100.00
58622;BME280;44389;51.578;5.456;2022-09-28T08:28:03;99604.28;;;9.36;100.00
58622;BME280;44389;51.578;5.456;2022-09-28T08:30:30;99613.84;;;9.46;100.00
58622;BME280;44389;51.578;5.456;2022-09-28T08:32:56;99619.06;;;9.49;100.00
58622;BME280;44389;51.578;5.456;2022-09-28T08:35:21;99621.66;;;9.51;100.00
58622;BME280;44389;51.578;5.456;2022-09-28T08:37:51;99614.84;;;9.54;100.00
58622;BME280;44389;51.578;5.456;2022-09-28T08:40:22;99615.94;;;9.72;100.00
58622;BME280;44389;51.578;5.456;2022-09-28T08:42:52;99624.81;;;9.96;100.00
58622;BME280;44389;51.578;5.456;2022-09-28T08:45:30;99621.63;;;10.15;100.00
58622;BME280;44389;51.578;5.456;2022-09-28T08:48:37;99622.63;;;10.31;100.00
58622;BME280;44389;51.578;5.456;2022-09-28T08:54:02;99628.88;;;10.47;100.00
58622;BME280;44389;51.578;5.456;2022-09-28T08:56:46;99639.19;;;10.50;100.00
58622;BME280;44389;51.578;5.456;2022-09-28T08:59:25;99641.97;;;10.70;100.00
58622;BME280;44389;51.578;5.456;2022-09-28T09:02:01;99637.84;;;10.90;100.00
58622;BME280;44389;51.578;5.456;2022-09-28T09:04:28;99641.22;;;10.82;100.00
58622;BME280;44389;51.578;5.456;2022-09-28T09:10:05;99647.59;;;11.25;100.00
58622;BME280;44389;51.578;5.456;2022-09-28T09:12:50;99649.31;;;11.26;97.26
58622;BME280;44389;51.578;5.456;2022-09-28T09:15:32;99648.63;;;11.51;99.95
58622;BME280;44389;51.578;5.456;2022-09-28T09:18:29;99659.06;;;11.70;97.92
58622;BME280;44389;51.578;5.456;2022-09-28T09:21:25;99646.31;;;11.96;95.50
58622;BME280;44389;51.578;5.456;2022-09-28T09:23:55;99654.22;;;12.32;93.87
58622;BME280;44389;51.578;5.456;2022-09-28T09:26:34;99656.84;;;12.47;91.42
58622;BME280;44389;51.578;5.456;2022-09-28T09:29:14;99655.16;;;12.65;89.68
58622;BME280;44389;51.578;5.456;2022-09-28T09:40:31;99658.59;;;13.78;89.29
58622;BME280;44389;51.578;5.456;2022-09-28T09:48:16;99667.28;;;15.28;77.73
58622;BME280;44389;51.578;5.456;2022-09-28T09:50:51;99676.34;;;14.73;77.47
58622;BME280;44389;51.578;5.456;2022-09-28T09:53:27;99678.38;;;14.09;77.68
58622;BME280;44389;51.578;5.456;2022-09-28T09:55:58;99667.91;;;14.29;76.26
58622;BME280;44389;51.578;5.456;2022-09-28T09:58:49;99675.66;;;14.33;79.20
58622;BME280;44389;51.578;5.456;2022-09-28T10:01:22;99664.44;;;14.31;76.25
58622;BME280;44389;51.578;5.456;2022-09-28T10:03:51;99669.81;;;13.87;75.64
58622;BME280;44389;51.578;5.456;2022-09-28T10:06:32;99673.31;;;13.58;78.62
58622;BME280;44389;51.578;5.456;2022-09-28T10:09:03;99673.31;;;13.27;80.68
58622;BME280;44389;51.578;5.456;2022-09-28T10:11:36;99673.31;;;13.08;78.85
58622;BME280;44389;51.578;5.456;2022-09-28T10:14:03;99667.13;;;14.07;78.13
58622;BME280;44389;51.578;5.456;2022-09-28T10:16:31;99670.69;;;13.84;74.84
58622;BME280;44389;51.578;5.456;2022-09-28T10:18:57;99671.50;;;13.97;75.16
58622;BME280;44389;51.578;5.456;2022-09-28T10:21:23;99673.28;;;13.67;73.84
58622;BME280;44389;51.578;5.456;2022-09-28T10:23:59;99662.97;;;13.33;77.95
58622;BME280;44389;51.578;5.456;2022-09-28T10:26:47;99671.59;;;12.98;79.07
58622;BME280;44389;51.578;5.456;2022-09-28T10:29:21;99680.13;;;12.69;80.91
58622;BME280;44389;51.578;5.456;2022-09-28T10:31:49;99673.31;;;13.08;79.86
58622;BME280;44389;51.578;5.456;2022-09-28T10:34:17;99667.25;;;13.66;77.98
58622;BME280;44389;51.578;5.456;2022-09-28T10:37:09;99664.34;;;14.53;79.87
58622;BME280;44389;51.578;5.456;2022-09-28T10:39:46;99666.00;;;14.65;74.47
58622;BME280;44389;51.578;5.456;2022-09-28T10:42:22;99666.19;;;14.31;75.28
58622;BME280;44389;51.578;5.456;2022-09-28T10:44:53;99667.19;;;14.02;75.68
58622;BME280;44389;51.578;5.456;2022-09-28T10:47:21;99667.22;;;13.83;75.70
58622;BME280;44389;51.578;5.456;2022-09-28T10:49:48;99664.34;;;14.48;75.36
58622;BME280;44389;51.578;5.456;2022-09-28T10:57:47;99655.25;;;16.73;64.69
58622;BME280;44389;51.578;5.456;2022-09-28T11:00:29;99667.97;;;16.93;68.73
58622;BME280;44389;51.578;5.456;2022-09-28T11:02:55;99659.34;;;16.26;65.99
58622;BME280;44389;51.578;5.456;2022-09-28T11:05:23;99656.69;;;15.53;66.71
58622;BME280;44389;51.578;5.456;2022-09-28T11:07:52;99662.34;;;15.02;68.22
58622;BME280;44389;51.578;5.456;2022-09-28T11:10:22;99666.06;;;14.53;70.23
58622;BME280;44389;51.578;5.456;2022-09-28T11:12:50;99667.13;;;14.10;72.31
58622;BME280;44389;51.578;5.456;2022-09-28T11:15:23;99667.25;;;13.62;75.34
58622;BME280;44389;51.578;5.456;2022-09-28T11:17:49;99664.69;;;13.23;76.84
58622;BME280;44389;51.578;5.456;2022-09-28T11:22:51;99666.41;;;12.89;79.76
58622;BME280;44389;51.578;5.456;2022-09-28T11:30:29;99657.81;;;15.24;70.97
58622;BME280;44389;51.578;5.456;2022-09-28T11:33:00;99653.75;;;14.92;70.66
58622;BME280;44389;51.578;5.456;2022-09-28T11:35:41;99655.72;;;14.43;72.96
58622;BME280;44389;51.578;5.456;2022-09-28T11:38:29;99656.78;;;14.00;72.98
58622;BME280;44389;51.578;5.456;2022-09-28T11:41:01;99659.50;;;13.46;74.04
58622;BME280;44389;51.578;5.456;2022-09-28T11:49:16;99667.19;;;12.54;80.99
58622;BME280;44389;51.578;5.456;2022-09-28T11:51:48;99660.31;;;12.52;80.92
58622;BME280;44389;51.578;5.456;2022-09-28T11:54:24;99664.69;;;13.39;80.70
58622;BME280;44389;51.578;5.456;2022-09-28T11:56:53;99656.66;;;14.31;77.27
58622;BME280;44389;51.578;5.456;2022-09-28T11:59:29;99661.84;;;15.54;73.05
58622;BME280;44389;51.578;5.456;2022-09-28T12:02:02;99651.94;;;16.62;68.39
58622;BME280;44389;51.578;5.456;2022-09-28T12:04:50;99653.53;;;16.69;68.31
58622;BME280;44389;51.578;5.456;2022-09-28T12:07:19;99656.47;;;15.74;67.16
58622;BME280;44389;51.578;5.456;2022-09-28T12:09:59;99657.81;;;15.21;69.91
58622;BME280;44389;51.578;5.456;2022-09-28T12:12:31;99657.47;;;14.44;71.50
58622;BME280;44389;51.578;5.456;2022-09-28T12:15:03;99649.88;;;14.06;72.68
58622;BME280;44389;51.578;5.456;2022-09-28T12:17:39;99652.56;;;13.73;75.38
58622;BME280;44389;51.578;5.456;2022-09-28T12:25:24;99652.63;;;13.61;76.48
58622;BME280;44389;51.578;5.456;2022-09-28T12:27:59;99655.75;;;14.40;76.10
58622;BME280;44389;51.578;5.456;2022-09-28T12:30:27;99659.50;;;15.29;72.34
58622;BME280;44389;51.578;5.456;2022-09-28T12:32:59;99659.47;;;15.34;69.62
58622;BME280;44389;51.578;5.456;2022-09-28T12:35:39;99657.13;;;15.02;67.95
58622;BME280;44389;51.578;5.456;2022-09-28T12:38:23;99658.41;;;14.29;68.54
58622;BME280;44389;51.578;5.456;2022-09-28T12:41:22;99661.97;;;14.00;72.44
58622;BME280;44389;51.578;5.456;2022-09-28T12:46:48;99661.22;;;12.95;71.65
58622;BME280;44389;51.578;5.456;2022-09-28T12:49:25;99659.50;;;12.78;74.43
58622;BME280;44389;51.578;5.456;2022-09-28T12:51:56;99657.78;;;13.34;76.59
58622;BME280;44389;51.578;5.456;2022-09-28T12:55:02;99660.19;;;14.15;73.72
58622;BME280;44389;51.578;5.456;2022-09-28T12:57:59;99651.63;;;15.37;68.33
58622;BME280;44389;51.578;5.456;2022-09-28T13:01:03;99653.34;;;16.21;68.40
58622;BME280;44389;51.578;5.456;2022-09-28T13:03:58;99643.94;;;16.74;62.26
58622;BME280;44389;51.578;5.456;2022-09-28T13:06:39;99646.41;;;16.84;62.81
58622;BME280;44389;51.578;5.456;2022-09-28T13:09:10;99644.97;;;17.20;61.55
58622;BME280;44389;51.578;5.456;2022-09-28T13:14:39;99655.44;;;17.19;60.50
58622;BME280;44389;51.578;5.456;2022-09-28T13:20:16;99658.97;;;18.12;59.71
58622;BME280;44389;51.578;5.456;2022-09-28T13:25:31;99657.59;;;17.43;55.30
58622;BME280;44389;51.578;5.456;2022-09-28T13:28:02;99654.66;;;17.14;56.82
58622;BME280;44389;51.578;5.456;2022-09-28T13:30:29;99659.53;;;16.76;56.18
58622;BME280;44389;51.578;5.456;2022-09-28T13:32:56;99646.63;;;16.70;54.92
58622;BME280;44389;51.578;5.456;2022-09-28T13:35:23;99652.72;;;17.25;55.95
58622;BME280;44389;51.578;5.456;2022-09-28T13:55:21;99658.47;;;16.91;59.55
58622;BME280;44389;51.578;5.456;2022-09-28T14:00:32;99669.91;;;16.13;61.09
58622;BME280;44389;51.578;5.456;2022-09-28T14:06:03;99670.31;;;15.73;64.05
58622;BME280;44389;51.578;5.456;2022-09-28T14:16:39;99663.53;;;14.42;68.45
58622;BME280;44389;51.578;5.456;2022-09-28T14:19:15;99659.22;;;14.38;70.54
58622;BME280;44389;51.578;5.456;2022-09-28T14:21:48;99655.78;;;14.37;70.78
58622;BME280;44389;51.578;5.456;2022-09-28T14:24:26;99667.84;;;14.41;70.74
58622;BME280;44389;51.578;5.456;2022-09-28T14:29:34;99671.47;;;14.06;75.41
58622;BME280;44389;51.578;5.456;2022-09-28T14:34:40;99670.69;;;13.73;78.18
58622;BME280;44389;51.578;5.456;2022-09-28T14:37:35;99672.44;;;13.54;77.38
58622;BME280;44389;51.578;5.456;2022-09-28T14:40:23;99680.22;;;13.56;79.10
58622;BME280;44389;51.578;5.456;2022-09-28T14:48:56;99691.47;;;13.39;75.33
58622;BME280;44389;51.578;5.456;2022-09-28T14:56:20;99694.00;;;13.00;74.50
58622;BME280;44389;51.578;5.456;2022-09-28T14:58:52;99696.56;;;12.94;75.11
58622;BME280;44389;51.578;5.456;2022-09-28T15:01:19;99692.25;;;12.84;70.88
58622;BME280;44389;51.578;5.456;2022-09-28T15:03:51;99692.22;;;12.79;70.93
58622;BME280;44389;51.578;5.456;2022-09-28T15:06:21;99706.84;;;12.66;72.98
58622;BME280;44389;51.578;5.456;2022-09-28T15:08:47;99702.50;;;12.55;69.96
58622;BME280;44389;51.578;5.456;2022-09-28T15:11:17;99712.81;;;12.42;69.78
58622;BME280;44389;51.578;5.456;2022-09-28T15:13:44;99713.69;;;12.41;69.98
58622;BME280;44389;51.578;5.456;2022-09-28T15:16:12;99719.66;;;12.28;70.85
58622;BME280;44389;51.578;5.456;2022-09-28T15:21:17;99711.84;;;12.12;71.15
58622;BME280;44389;51.578;5.456;2022-09-28T15:23:44;99720.44;;;12.13;71.22
58622;BME280;44389;51.578;5.456;2022-09-28T15:26:24;99724.75;;;12.12;71.79